LIED/DCI METAR and TAF weather

Enter ICAO airport designator
Station Type Date Time Source
LIED METAR 2020/12/01 19:55 UTC NOAA

LIED 011955Z /////KT 9999 FEW020 13/11 Q1012 RMK BKN BKN200 VIS MIN 9999 WIND THR35 /////KT WIND THR17 26005KT BLU


Station Type Date Time Source
LIED Decoded METAR 2020/12/01 19:55 UTC NOAA

Decimomannu, Italy (LIED) 39-21N 008-58E 28M
Dec 01, 2020 - 02:55 PM EST / 2020.12.01 1955 UTC
Visibility: greater than 7 mile(s):0
Sky conditions: mostly clear
Temperature: 55 F (13 C)
Dew Point: 51 F (11 C)
Relative Humidity: 87%
Pressure (altimeter): 29.88 in. Hg (1012 hPa)
ob: LIED 011955Z /////KT 9999 FEW020 13/11 Q1012 RMK BKN BKN200 VIS MIN 9999 WIND THR35 /////KT WIND THR17 26005KT BLU
cycle: 20

Station Type Date Time Source
LIED TAF 2020/06/17 18:36 UTC NOAA

TAF TAF
AMD LIED 171701Z 1718/1806 32010KT CAVOK

Example: see airport list